createdAt,value
2023-05-14T00:01:02.294Z,101919.59
2023-05-14T00:03:28.984Z,101916.50
2023-05-14T00:05:55.525Z,101919.56
2023-05-14T00:08:22.053Z,101919.56
2023-05-14T00:10:48.609Z,101909.03
2023-05-14T00:13:15.534Z,101924.81
2023-05-14T00:15:42.118Z,101916.78
2023-05-14T00:18:12.037Z,101910.13
2023-05-14T00:20:38.626Z,101909.00
2023-05-14T00:23:05.186Z,101903.97
2023-05-14T00:25:31.740Z,101905.63
2023-05-14T00:27:58.231Z,101907.31
2023-05-14T00:30:24.996Z,101905.91
2023-05-14T00:32:51.726Z,101901.19
2023-05-14T00:35:18.362Z,101907.00
2023-05-14T00:37:44.833Z,101898.91
2023-05-14T00:40:12.940Z,101894.78
2023-05-14T00:42:40.584Z,101891.44
2023-05-14T00:45:07.670Z,101886.72
2023-05-14T00:47:34.869Z,101888.09
2023-05-14T00:50:03.530Z,101887.22
2023-05-14T00:52:30.105Z,101878.94
2023-05-14T00:54:57.071Z,101884.44
2023-05-14T00:57:23.659Z,101885.00
2023-05-14T00:59:50.737Z,101884.13
2023-05-14T01:02:17.318Z,101872.78
2023-05-14T01:04:43.928Z,101870.53
2023-05-14T01:07:34.485Z,101881.00
2023-05-14T01:10:06.587Z,101882.69
2023-05-14T01:12:52.890Z,101879.13
2023-05-14T01:15:28.650Z,101877.66
2023-05-14T01:18:01.708Z,101885.66
2023-05-14T01:20:28.291Z,101880.38
2023-05-14T01:22:54.796Z,101870.41
2023-05-14T01:25:21.315Z,101866.53
2023-05-14T01:28:10.985Z,101874.00
2023-05-14T01:30:58.351Z,101872.84
2023-05-14T01:33:27.578Z,101869.69
2023-05-14T01:35:55.355Z,101868.59
2023-05-14T01:38:23.449Z,101862.53
2023-05-14T01:40:50.825Z,101863.53
2023-05-14T01:43:17.747Z,101862.41
2023-05-14T01:45:44.527Z,101867.63
2023-05-14T01:48:11.273Z,101863.75
2023-05-14T01:50:37.940Z,101862.78
2023-05-14T01:53:04.614Z,101868.38
2023-05-14T01:55:31.272Z,101868.06
2023-05-14T01:57:57.822Z,101862.28
2023-05-14T02:00:27.679Z,101862.25
2023-05-14T02:02:54.423Z,101860.63
2023-05-14T02:05:23.038Z,101853.41
2023-05-14T02:07:49.525Z,101855.91
2023-05-14T02:10:16.143Z,101858.34
2023-05-14T02:12:42.703Z,101860.75
2023-05-14T02:15:10.983Z,101845.78
2023-05-14T02:17:38.157Z,101852.69
2023-05-14T02:20:05.469Z,101849.94
2023-05-14T02:22:32.158Z,101848.78
2023-05-14T02:24:58.845Z,101844.03
2023-05-14T02:27:25.385Z,101843.25
2023-05-14T02:29:52.881Z,101846.81
2023-05-14T02:32:19.464Z,101845.34
2023-05-14T02:34:45.969Z,101845.66
2023-05-14T02:37:12.678Z,101842.53
2023-05-14T02:39:39.158Z,101850.59
2023-05-14T02:42:06.990Z,101846.44
2023-05-14T02:44:33.606Z,101841.94
2023-05-14T02:47:00.211Z,101843.53
2023-05-14T02:49:26.744Z,101852.66
2023-05-14T02:51:54.386Z,101851.09
2023-05-14T02:54:20.974Z,101850.59
2023-05-14T02:56:47.590Z,101853.22
2023-05-14T02:59:14.439Z,101845.44
2023-05-14T03:01:41.604Z,101846.81
2023-05-14T03:04:08.718Z,101843.47
2023-05-14T03:06:35.355Z,101834.41
2023-05-14T03:09:01.865Z,101833.91
2023-05-14T03:11:28.480Z,101836.59
2023-05-14T03:13:55.093Z,101836.59
2023-05-14T03:16:21.635Z,101833.84
2023-05-14T03:18:48.250Z,101829.41
2023-05-14T03:21:14.827Z,101834.63
2023-05-14T03:23:41.499Z,101834.31
2023-05-14T03:26:08.382Z,101832.63
2023-05-14T03:28:34.875Z,101833.84
2023-05-14T03:31:01.593Z,101832.91
2023-05-14T03:33:28.318Z,101822.72
2023-05-14T03:35:54.798Z,101832.03
2023-05-14T03:38:21.403Z,101822.97
2023-05-14T03:40:47.895Z,101812.91
2023-05-14T03:43:14.594Z,101820.41
2023-05-14T03:45:41.358Z,101823.16
2023-05-14T03:48:08.202Z,101819.84
2023-05-14T03:50:35.098Z,101828.97
2023-05-14T03:53:01.710Z,101822.66
2023-05-14T03:55:29.997Z,101817.38
2023-05-14T03:57:56.570Z,101821.31
2023-05-14T04:00:23.462Z,101822.66
2023-05-14T04:02:52.215Z,101816.50
2023-05-14T04:05:18.792Z,101820.59
2023-05-14T04:07:46.159Z,101821.38
2023-05-14T04:10:13.808Z,101820.28
2023-05-14T04:12:40.287Z,101826.38
2023-05-14T04:15:08.373Z,101822.91
2023-05-14T04:17:35.371Z,101819.13
2023-05-14T04:20:01.895Z,101816.88
2023-05-14T04:22:28.448Z,101816.34
2023-05-14T04:24:54.940Z,101816.09
2023-05-14T04:27:21.648Z,101818.78
2023-05-14T04:29:49.271Z,101815.78
2023-05-14T04:32:15.765Z,101813.78
2023-05-14T04:34:42.424Z,101818.41
2023-05-14T04:37:08.921Z,101816.53
2023-05-14T04:39:35.486Z,101810.72
2023-05-14T04:42:02.014Z,101813.38
2023-05-14T04:44:28.625Z,101820.91
2023-05-14T04:46:55.648Z,101816.53
2023-05-14T04:49:22.320Z,101819.66
2023-05-14T04:51:49.351Z,101816.31
2023-05-14T04:54:15.890Z,101822.41
2023-05-14T04:56:42.438Z,101822.56
2023-05-14T04:59:09.015Z,101825.94
2023-05-14T05:01:35.637Z,101812.56
2023-05-14T05:04:02.277Z,101807.72
2023-05-14T05:06:28.829Z,101822.44
2023-05-14T05:08:55.724Z,101821.91
2023-05-14T05:11:22.269Z,101822.25
2023-05-14T05:13:48.764Z,101820.44
2023-05-14T05:16:15.626Z,101822.94
2023-05-14T05:18:42.279Z,101817.91
2023-05-14T05:21:08.766Z,101820.09
2023-05-14T05:23:35.348Z,101817.91
2023-05-14T05:26:01.908Z,101824.78
2023-05-14T05:28:28.446Z,101829.63
2023-05-14T05:30:55.178Z,101823.38
2023-05-14T05:33:21.821Z,101825.28
2023-05-14T05:35:48.776Z,101833.88
2023-05-14T05:38:15.645Z,101829.78
2023-05-14T05:40:42.129Z,101830.06
2023-05-14T05:43:08.625Z,101824.44
2023-05-14T05:45:35.068Z,101829.22
2023-05-14T05:48:01.643Z,101842.38
2023-05-14T05:50:28.174Z,101837.47
2023-05-14T05:52:54.651Z,101845.94
2023-05-14T05:55:21.284Z,101846.50
2023-05-14T05:57:47.872Z,101844.66
2023-05-14T06:00:15.094Z,101845.47
2023-05-14T06:02:41.818Z,101842.72
2023-05-14T06:05:10.195Z,101850.50
2023-05-14T06:07:36.782Z,101851.34
2023-05-14T06:10:03.524Z,101848.81
2023-05-14T06:12:30.063Z,101852.66
2023-05-14T06:14:57.831Z,101851.50
2023-05-14T06:17:25.137Z,101853.19
2023-05-14T06:19:52.237Z,101860.50
2023-05-14T06:22:19.195Z,101861.53
2023-05-14T06:24:45.843Z,101858.19
2023-05-14T06:27:12.342Z,101856.50
2023-05-14T06:29:38.991Z,101864.69
2023-05-14T06:32:05.941Z,101863.44
2023-05-14T06:34:32.526Z,101861.84
2023-05-14T06:36:59.135Z,101861.44
2023-05-14T06:39:25.715Z,101864.66
2023-05-14T06:41:52.294Z,101866.25
2023-05-14T06:44:19.552Z,101855.84
2023-05-14T06:46:46.097Z,101856.25
2023-05-14T06:49:12.656Z,101858.16
2023-05-14T06:51:40.634Z,101853.53
2023-05-14T06:54:07.155Z,101856.31
2023-05-14T06:56:33.641Z,101853.75
2023-05-14T06:59:00.228Z,101848.91
2023-05-14T07:01:26.819Z,101854.66
2023-05-14T07:03:53.458Z,101849.63
2023-05-14T07:06:20.339Z,101857.19
2023-05-14T07:08:46.962Z,101857.50
2023-05-14T07:11:13.578Z,101855.91
2023-05-14T07:13:40.712Z,101847.63
2023-05-14T07:16:10.135Z,101856.50
2023-05-14T07:18:36.829Z,101855.16
2023-05-14T07:21:06.407Z,101857.22
2023-05-14T07:23:36.224Z,101855.97
2023-05-14T07:26:03.329Z,101856.28
2023-05-14T07:28:29.811Z,101858.53
2023-05-14T07:30:56.381Z,101856.31
2023-05-14T07:33:24.605Z,101853.25
2023-05-14T07:35:51.447Z,101858.28
2023-05-14T07:38:19.068Z,101859.09
2023-05-14T07:40:45.916Z,101853.56
2023-05-14T07:43:12.771Z,101858.09
2023-05-14T07:45:39.418Z,101857.03
2023-05-14T07:48:06.449Z,101851.66
2023-05-14T07:50:33.169Z,101851.91
2023-05-14T07:52:59.720Z,101841.13
2023-05-14T07:55:26.231Z,101849.47
2023-05-14T07:57:52.768Z,101844.47
2023-05-14T08:00:19.401Z,101837.56
2023-05-14T08:02:46.198Z,101839.66
2023-05-14T08:05:12.877Z,101836.66
2023-05-14T08:07:39.412Z,101835.28
2023-05-14T08:10:07.709Z,101838.03
2023-05-14T08:12:34.305Z,101838.38
2023-05-14T08:15:00.807Z,101838.72
2023-05-14T08:17:27.369Z,101842.88
2023-05-14T08:19:54.163Z,101842.41
2023-05-14T08:22:21.716Z,101835.31
2023-05-14T08:24:48.786Z,101840.34
2023-05-14T08:27:16.623Z,101830.19
2023-05-14T08:29:43.201Z,101836.38
2023-05-14T08:32:22.211Z,101833.69
2023-05-14T08:34:49.706Z,101832.41
2023-05-14T08:37:16.239Z,101827.75
2023-05-14T08:39:42.771Z,101835.56
2023-05-14T08:42:13.051Z,101832.63
2023-05-14T08:44:52.484Z,101832.19
2023-05-14T08:47:21.946Z,101830.00
2023-05-14T08:50:02.476Z,101821.75
2023-05-14T08:52:29.108Z,101832.56
2023-05-14T08:54:57.258Z,101830.09
2023-05-14T08:57:26.478Z,101819.38
2023-05-14T08:59:53.779Z,101820.22
2023-05-14T09:02:27.548Z,101831.28
2023-05-14T09:05:01.385Z,101819.16
2023-05-14T09:07:28.079Z,101811.69
2023-05-14T09:09:55.401Z,101808.69
2023-05-14T09:12:22.446Z,101806.25
2023-05-14T09:14:50.029Z,101811.78
2023-05-14T09:17:17.485Z,101803.84
2023-05-14T09:19:47.242Z,101801.13
2023-05-14T09:22:15.968Z,101790.09
2023-05-14T09:24:42.932Z,101792.91
2023-05-14T09:27:15.221Z,101790.16
2023-05-14T09:29:41.698Z,101798.47
2023-05-14T09:32:10.202Z,101799.59
2023-05-14T09:34:39.504Z,101794.09
2023-05-14T09:37:08.580Z,101793.28
2023-05-14T09:39:37.229Z,101797.19
2023-05-14T09:42:04.720Z,101796.34
2023-05-14T09:44:31.902Z,101788.59
2023-05-14T09:46:58.562Z,101785.31
2023-05-14T09:49:25.175Z,101784.47
2023-05-14T09:51:51.656Z,101776.47
2023-05-14T09:54:18.326Z,101782.56
2023-05-14T09:56:44.950Z,101776.50
2023-05-14T09:59:11.608Z,101781.50
2023-05-14T10:01:38.691Z,101779.00
2023-05-14T10:04:09.280Z,101781.81
2023-05-14T10:06:39.829Z,101780.97
2023-05-14T10:09:12.940Z,101781.53
2023-05-14T10:11:44.135Z,101778.19
2023-05-14T10:14:24.891Z,101779.59
2023-05-14T10:16:53.105Z,101776.25
2023-05-14T10:19:23.754Z,101772.66
2023-05-14T10:21:57.266Z,101769.31
2023-05-14T10:24:25.604Z,101766.53
2023-05-14T10:26:52.785Z,101767.66
2023-05-14T10:29:19.311Z,101761.53
2023-05-14T10:31:47.407Z,101761.28
2023-05-14T10:34:40.625Z,101759.84
2023-05-14T10:37:18.942Z,101760.69
2023-05-14T10:39:45.461Z,101757.63
2023-05-14T10:42:16.441Z,101755.94
2023-05-14T10:44:53.406Z,101755.13
2023-05-14T10:47:20.449Z,101744.81
2023-05-14T10:49:50.604Z,101745.91
2023-05-14T10:52:21.002Z,101745.91
2023-05-14T10:54:51.775Z,101747.00
2023-05-14T10:57:19.445Z,101737.00
2023-05-14T10:59:47.878Z,101739.78
2023-05-14T11:02:31.715Z,101743.06
2023-05-14T11:05:08.133Z,101733.84
2023-05-14T11:07:45.927Z,101729.91
2023-05-14T11:10:14.517Z,101726.84
2023-05-14T11:12:43.860Z,101724.63
2023-05-14T11:15:16.159Z,101739.53
2023-05-14T11:17:43.873Z,101722.94
2023-05-14T11:20:11.808Z,101726.81
2023-05-14T11:22:39.550Z,101730.09
2023-05-14T11:25:07.221Z,101727.28
2023-05-14T11:27:35.870Z,101722.56
2023-05-14T11:30:03.845Z,101710.03
2023-05-14T11:32:32.666Z,101718.03
2023-05-14T11:34:59.180Z,101715.25
2023-05-14T11:37:25.752Z,101703.81
2023-05-14T11:39:56.462Z,101702.94
2023-05-14T11:42:23.697Z,101698.72
2023-05-14T11:44:51.830Z,101700.91
2023-05-14T11:47:20.648Z,101698.94
2023-05-14T11:49:48.495Z,101699.16
2023-05-14T11:52:16.484Z,101697.38
2023-05-14T11:54:44.097Z,101695.19
2023-05-14T11:57:12.853Z,101688.41
2023-05-14T11:59:39.994Z,101690.03
2023-05-14T12:02:11.680Z,101689.72
2023-05-14T12:04:38.689Z,101677.19
2023-05-14T12:07:13.493Z,101681.56
2023-05-14T12:09:49.690Z,101685.06
2023-05-14T12:12:19.257Z,101681.16
2023-05-14T12:14:45.790Z,101667.84
2023-05-14T12:17:19.671Z,101675.22
2023-05-14T12:19:48.325Z,101672.72
2023-05-14T12:22:17.527Z,101667.94
2023-05-14T12:24:52.323Z,101670.59
2023-05-14T12:27:22.444Z,101667.50
2023-05-14T12:29:48.929Z,101660.47
2023-05-14T12:32:15.576Z,101661.56
2023-05-14T12:34:42.100Z,101660.97
2023-05-14T12:37:08.640Z,101655.34
2023-05-14T12:39:35.606Z,101653.63
2023-05-14T12:42:02.264Z,101655.75
2023-05-14T12:44:29.094Z,101646.28
2023-05-14T12:46:55.815Z,101647.84
2023-05-14T12:49:22.433Z,101639.50
2023-05-14T12:51:51.178Z,101645.28
2023-05-14T12:54:19.302Z,101639.72
2023-05-14T12:56:45.928Z,101639.50
2023-05-14T12:59:12.447Z,101639.25
2023-05-14T13:01:38.970Z,101633.25
2023-05-14T13:04:05.678Z,101630.75
2023-05-14T13:06:32.570Z,101630.75
2023-05-14T13:09:01.660Z,101617.66
2023-05-14T13:11:30.290Z,101624.66
2023-05-14T13:13:56.908Z,101620.16
2023-05-14T13:16:23.538Z,101625.19
2023-05-14T13:18:50.165Z,101612.63
2023-05-14T13:21:16.665Z,101615.44
2023-05-14T13:23:43.176Z,101624.28
2023-05-14T13:26:09.855Z,101616.16
2023-05-14T13:28:36.371Z,101621.94
2023-05-14T13:31:06.281Z,101616.31
2023-05-14T13:33:34.756Z,101609.31
2023-05-14T13:36:01.574Z,101610.75
2023-05-14T13:38:28.162Z,101619.09
2023-05-14T13:40:57.188Z,101611.88
2023-05-14T13:43:23.868Z,101611.03
2023-05-14T13:45:51.082Z,101609.41
2023-05-14T13:48:17.748Z,101608.34
2023-05-14T13:50:44.275Z,101605.34
2023-05-14T13:53:10.850Z,101604.50
2023-05-14T13:55:37.405Z,101600.91
2023-05-14T13:58:04.766Z,101589.22
2023-05-14T14:00:31.271Z,101596.38
2023-05-14T14:02:57.987Z,101592.16
2023-05-14T14:05:28.262Z,101592.69
2023-05-14T14:08:00.865Z,101582.06
2023-05-14T14:10:34.685Z,101584.47
2023-05-14T14:13:01.165Z,101575.22
2023-05-14T14:15:27.656Z,101570.69
2023-05-14T14:17:54.352Z,101577.94
2023-05-14T14:20:20.843Z,101571.75
2023-05-14T14:22:47.406Z,101566.41
2023-05-14T14:25:13.937Z,101580.25
2023-05-14T14:27:40.883Z,101573.34
2023-05-14T14:30:15.866Z,101568.38
2023-05-14T14:32:44.461Z,101571.25
2023-05-14T14:35:12.376Z,101571.25
2023-05-14T14:37:39.030Z,101574.59
2023-05-14T14:40:10.256Z,101563.78
2023-05-14T14:42:37.757Z,101565.72
2023-05-14T14:45:05.417Z,101563.84
2023-05-14T14:47:32.083Z,101573.66
2023-05-14T14:49:58.981Z,101564.25
2023-05-14T14:52:26.253Z,101568.69
2023-05-14T14:54:53.942Z,101561.25
2023-05-14T14:57:21.498Z,101562.91
2023-05-14T14:59:48.958Z,101567.53
2023-05-14T15:02:15.658Z,101563.63
2023-05-14T15:04:42.186Z,101560.84
2023-05-14T15:07:08.689Z,101559.78
2023-05-14T15:09:35.501Z,101560.41
2023-05-14T15:12:02.089Z,101560.91
2023-05-14T15:14:28.651Z,101557.84
2023-05-14T15:16:55.429Z,101551.97
2023-05-14T15:19:22.038Z,101547.53
2023-05-14T15:21:48.604Z,101550.00
2023-05-14T15:24:15.131Z,101553.31
2023-05-14T15:26:41.949Z,101543.63
2023-05-14T15:29:08.524Z,101543.53
2023-05-14T15:31:35.052Z,101541.28
2023-05-14T15:34:01.598Z,101540.22
2023-05-14T15:36:28.634Z,101541.97
2023-05-14T15:38:55.400Z,101538.84
2023-05-14T15:41:22.716Z,101541.56
2023-05-14T15:43:49.233Z,101537.94
2023-05-14T15:46:15.776Z,101537.66
2023-05-14T15:48:42.310Z,101542.94
2023-05-14T15:51:08.811Z,101536.22
2023-05-14T15:53:35.410Z,101533.13
2023-05-14T15:56:02.760Z,101522.28
2023-05-14T15:58:29.263Z,101529.22
2023-05-14T16:00:56.066Z,101523.06
2023-05-14T16:03:22.670Z,101520.56
2023-05-14T16:05:49.298Z,101517.72
2023-05-14T16:08:15.801Z,101514.66
2023-05-14T16:10:42.338Z,101517.94
2023-05-14T16:13:08.811Z,101518.22
2023-05-14T16:15:35.552Z,101525.38
2023-05-14T16:18:02.204Z,101530.63
2023-05-14T16:20:28.779Z,101521.47
2023-05-14T16:22:55.376Z,101526.81
2023-05-14T16:25:21.854Z,101527.03
2023-05-14T16:27:48.418Z,101518.16
2023-05-14T16:30:15.045Z,101526.94
2023-05-14T16:32:42.163Z,101518.97
2023-05-14T16:35:09.894Z,101525.38
2023-05-14T16:37:36.413Z,101526.22
2023-05-14T16:40:03.169Z,101519.06
2023-05-14T16:42:29.640Z,101524.34
2023-05-14T16:44:56.121Z,101522.16
2023-05-14T16:47:22.676Z,101528.88
2023-05-14T16:49:49.190Z,101531.94
2023-05-14T16:52:15.676Z,101530.31
2023-05-14T16:54:42.141Z,101526.75
2023-05-14T16:57:08.624Z,101528.56
2023-05-14T16:59:35.328Z,101538.19
2023-05-14T17:02:01.874Z,101532.41
2023-05-14T17:04:28.481Z,101538.81
2023-05-14T17:06:57.257Z,101539.72
2023-05-14T17:09:23.833Z,101535.59
2023-05-14T17:11:50.772Z,101534.94
2023-05-14T17:14:17.325Z,101531.59
2023-05-14T17:16:43.965Z,101532.50
2023-05-14T17:19:10.995Z,101533.09
2023-05-14T17:21:37.680Z,101536.50
2023-05-14T17:24:04.261Z,101537.69
2023-05-14T17:26:30.786Z,101543.78
2023-05-14T17:28:57.281Z,101540.25
2023-05-14T17:31:23.947Z,101541.44
2023-05-14T17:33:50.613Z,101545.47
2023-05-14T17:36:17.176Z,101559.47
2023-05-14T17:38:43.695Z,101553.78
2023-05-14T17:41:10.180Z,101565.31
2023-05-14T17:43:36.689Z,101559.56
2023-05-14T17:46:03.591Z,101562.81
2023-05-14T17:48:30.194Z,101548.63
2023-05-14T17:50:56.742Z,101561.72
2023-05-14T17:53:23.309Z,101557.66
2023-05-14T17:55:50.115Z,101559.31
2023-05-14T17:58:16.710Z,101567.09
2023-05-14T18:00:44.020Z,101558.84
2023-05-14T18:03:11.217Z,101558.28
2023-05-14T18:05:37.928Z,101565.25
2023-05-14T18:08:04.589Z,101566.59
2023-05-14T18:10:31.176Z,101562.50
2023-05-14T18:12:57.725Z,101556.50
2023-05-14T18:15:25.683Z,101566.78
2023-05-14T18:17:52.879Z,101573.47
2023-05-14T18:20:19.894Z,101566.91
2023-05-14T18:22:46.443Z,101562.59
2023-05-14T18:25:13.612Z,101572.03
2023-05-14T18:27:44.310Z,101568.53
2023-05-14T18:30:15.315Z,101567.44
2023-05-14T18:32:44.163Z,101565.84
2023-05-14T18:35:12.092Z,101572.56
2023-05-14T18:37:38.706Z,101572.84
2023-05-14T18:40:06.917Z,101572.84
2023-05-14T18:42:34.032Z,101580.34
2023-05-14T18:45:00.655Z,101581.16
2023-05-14T18:47:27.449Z,101583.66
2023-05-14T18:49:55.777Z,101585.88
2023-05-14T18:52:22.933Z,101582.31
2023-05-14T18:54:50.554Z,101586.28
2023-05-14T18:57:17.199Z,101591.28
2023-05-14T18:59:43.690Z,101594.03
2023-05-14T19:02:10.210Z,101594.09
2023-05-14T19:04:50.754Z,101590.28
2023-05-14T19:07:18.835Z,101594.72
2023-05-14T19:09:45.448Z,101597.19
2023-05-14T19:12:12.341Z,101591.44
2023-05-14T19:14:38.865Z,101585.31
2023-05-14T19:17:05.718Z,101583.38
2023-05-14T19:19:32.625Z,101593.63
2023-05-14T19:21:59.128Z,101587.56
2023-05-14T19:24:25.836Z,101598.63
2023-05-14T19:26:52.682Z,101593.09
2023-05-14T19:29:19.296Z,101597.81
2023-05-14T19:31:45.939Z,101597.00
2023-05-14T19:34:12.508Z,101590.63
2023-05-14T19:36:38.989Z,101603.06
2023-05-14T19:39:05.910Z,101602.50
2023-05-14T19:41:32.489Z,101600.31
2023-05-14T19:43:59.004Z,101599.78
2023-05-14T19:46:26.135Z,101593.13
2023-05-14T19:48:52.831Z,101600.88
2023-05-14T19:51:19.365Z,101600.88
2023-05-14T19:53:45.985Z,101597.00
2023-05-14T19:56:12.511Z,101597.00
2023-05-14T19:58:39.295Z,101602.53
2023-05-14T20:01:05.869Z,101601.97
2023-05-14T20:03:33.428Z,101607.81
2023-05-14T20:06:00.148Z,101599.47
2023-05-14T20:08:26.783Z,101601.97
2023-05-14T20:10:53.313Z,101601.13
2023-05-14T20:13:19.918Z,101604.47
2023-05-14T20:15:46.685Z,101593.41
2023-05-14T20:18:13.362Z,101600.91
2023-05-14T20:20:40.000Z,101607.53
2023-05-14T20:23:06.551Z,101601.16
2023-05-14T20:25:33.336Z,101600.88
2023-05-14T20:28:00.734Z,101602.53
2023-05-14T20:30:28.047Z,101603.09
2023-05-14T20:32:54.905Z,101605.31
2023-05-14T20:35:21.494Z,101610.28
2023-05-14T20:37:49.405Z,101618.06
2023-05-14T20:40:16.008Z,101615.28
2023-05-14T20:42:42.574Z,101615.28
2023-05-14T20:45:10.628Z,101618.59
2023-05-14T20:47:37.358Z,101611.97
2023-05-14T20:50:04.666Z,101612.78
2023-05-14T20:52:31.230Z,101605.59
2023-05-14T20:54:59.428Z,101605.88
2023-05-14T20:57:28.295Z,101614.44
2023-05-14T20:59:54.888Z,101617.22
2023-05-14T21:02:21.548Z,101618.88
2023-05-14T21:04:48.208Z,101610.81
2023-05-14T21:07:14.872Z,101608.34
2023-05-14T21:09:41.925Z,101601.72
2023-05-14T21:12:08.790Z,101608.06
2023-05-14T21:14:35.492Z,101607.47
2023-05-14T21:17:02.137Z,101596.66
2023-05-14T21:19:28.669Z,101606.63
2023-05-14T21:21:55.334Z,101604.66
2023-05-14T21:24:21.931Z,101599.69
2023-05-14T21:26:48.503Z,101600.84
2023-05-14T21:29:15.057Z,101589.72
2023-05-14T21:31:41.643Z,101597.16
2023-05-14T21:34:08.159Z,101586.97
2023-05-14T21:36:34.734Z,101588.03
2023-05-14T21:39:01.299Z,101594.44
2023-05-14T21:41:27.843Z,101592.00
2023-05-14T21:43:54.377Z,101594.66
2023-05-14T21:46:21.104Z,101594.72
2023-05-14T21:48:47.736Z,101592.97
2023-05-14T21:51:14.506Z,101589.09
2023-05-14T21:53:41.173Z,101581.03
2023-05-14T21:56:08.253Z,101576.88
2023-05-14T21:58:35.634Z,101572.53
2023-05-14T22:01:02.260Z,101578.09
2023-05-14T22:03:28.886Z,101573.38
2023-05-14T22:05:56.164Z,101576.91
2023-05-14T22:08:23.348Z,101574.44
2023-05-14T22:10:49.831Z,101576.28
2023-05-14T22:13:16.388Z,101575.81
2023-05-14T22:15:43.006Z,101574.13
2023-05-14T22:18:09.742Z,101572.19
2023-05-14T22:20:36.303Z,101570.44
2023-05-14T22:23:02.765Z,101565.75
2023-05-14T22:25:29.319Z,101568.53
2023-05-14T22:27:55.852Z,101571.00
2023-05-14T22:30:22.353Z,101576.22
2023-05-14T22:32:48.875Z,101578.41
2023-05-14T22:35:15.606Z,101569.25
2023-05-14T22:37:42.146Z,101569.75
2023-05-14T22:40:09.105Z,101565.88
2023-05-14T22:42:35.790Z,101566.75
2023-05-14T22:45:02.394Z,101569.47
2023-05-14T22:47:29.084Z,101555.56
2023-05-14T22:49:55.647Z,101555.88
2023-05-14T22:52:22.225Z,101552.47
2023-05-14T22:54:51.033Z,101545.03
2023-05-14T22:57:18.006Z,101541.78
2023-05-14T22:59:44.517Z,101537.34
2023-05-14T23:02:11.180Z,101543.56
2023-05-14T23:04:37.819Z,101535.69
2023-05-14T23:07:04.550Z,101532.66
2023-05-14T23:09:31.078Z,101541.78
2023-05-14T23:11:57.636Z,101544.53
2023-05-14T23:14:24.211Z,101548.09
2023-05-14T23:16:50.738Z,101537.28
2023-05-14T23:19:17.349Z,101525.41
2023-05-14T23:21:43.908Z,101523.44
2023-05-14T23:24:10.486Z,101531.56
2023-05-14T23:26:37.086Z,101528.22
2023-05-14T23:29:03.657Z,101524.88
2023-05-14T23:31:30.336Z,101528.72
2023-05-14T23:33:57.280Z,101529.13
2023-05-14T23:36:24.020Z,101532.31
2023-05-14T23:38:51.225Z,101520.97
2023-05-14T23:41:17.708Z,101521.22
2023-05-14T23:43:44.230Z,101518.09
2023-05-14T23:46:10.996Z,101531.22
2023-05-14T23:48:37.620Z,101521.56
2023-05-14T23:51:04.209Z,101513.84
2023-05-14T23:53:30.688Z,101520.78
2023-05-14T23:55:57.330Z,101514.63
2023-05-14T23:58:23.932Z,101516.25
